Time;durP1;ratioP1;P1;durP2;ratioP2;P2;SDS_P1;SDS_P2;PMS_P1;PMS_P2;Temp;Humidity;BMP_temperature;BMP_pressure;BME280_temperature;BME280_humidity;BME280_pressure;Samples;Min_cycle;Max_cycle;Signal;HPM_P1;HPM_P2
2023/01/20 00:02:29;;;;;;;134.20;57.20;;;;;;;-2.06;87.94;99718.98;106430;1270;22565;-59
2023/01/20 00:05:00;;;;;;;149.60;62.70;;;;;;;-2.04;87.99;99722.40;106475;1270;26765;-60
2023/01/20 00:07:33;;;;;;;172.00;70.50;;;;;;;-2.04;87.87;99720.77;106444;1276;22524;-59
2023/01/20 00:10:05;;;;;;;178.90;74.80;;;;;;;-2.05;87.88;99725.08;106482;1276;22656;-56
2023/01/20 00:12:36;;;;;;;168.90;75.10;;;;;;;-2.05;87.99;99726.79;106540;1276;22708;-58
2023/01/20 00:15:09;;;;;;;159.10;64.20;;;;;;;-2.02;88.08;99726.76;106471;1276;26149;-58
2023/01/20 00:17:40;;;;;;;156.30;67.20;;;;;;;-2.01;88.04;99722.93;106501;1276;22592;-60
2023/01/20 00:20:15;;;;;;;167.70;69.10;;;;;;;-2.00;88.04;99719.31;106476;1274;22545;-59
2023/01/20 00:22:46;;;;;;;169.20;70.60;;;;;;;-1.99;87.87;99722.74;106763;1262;24247;-58
2023/01/20 00:25:17;;;;;;;168.60;70.50;;;;;;;-2.00;87.85;99719.09;106417;1270;22541;-59
2023/01/20 00:27:48;;;;;;;166.90;70.90;;;;;;;-2.01;87.84;99722.30;106408;1277;22540;-59
2023/01/20 00:30:20;;;;;;;164.50;68.30;;;;;;;-2.02;87.82;99721.21;106420;1275;22573;-59
2023/01/20 00:32:51;;;;;;;157.60;68.70;;;;;;;-2.03;87.79;99718.09;106526;1270;24954;-58
2023/01/20 00:35:22;;;;;;;158.80;67.10;;;;;;;-2.02;87.71;99723.23;106468;1261;24385;-59
2023/01/20 00:37:53;;;;;;;152.00;68.90;;;;;;;-2.02;87.68;99725.90;106311;1277;24253;-59
2023/01/20 00:40:24;;;;;;;144.80;65.10;;;;;;;-2.02;87.65;99725.12;106439;1272;22571;-57
2023/01/20 00:42:54;;;;;;;159.30;67.40;;;;;;;-2.02;87.71;99728.63;106480;1277;22633;-58
2023/01/20 00:45:26;;;;;;;153.90;63.50;;;;;;;-2.03;87.72;99726.91;106365;1276;23160;-58
2023/01/20 00:47:57;;;;;;;160.60;67.90;;;;;;;-2.02;87.69;99727.06;106345;1262;27824;-57
2023/01/20 00:50:28;;;;;;;146.00;61.60;;;;;;;-2.03;87.64;99729.58;106510;1274;24282;-59
2023/01/20 00:52:59;;;;;;;149.60;64.00;;;;;;;-2.03;87.56;99739.11;106457;1262;24286;-59
2023/01/20 00:55:30;;;;;;;145.80;60.90;;;;;;;-2.05;87.26;99745.31;106487;1268;26669;-59
2023/01/20 00:58:00;;;;;;;137.50;59.80;;;;;;;-2.08;87.19;99746.05;106491;1276;24386;-57
2023/01/20 01:00:31;;;;;;;142.90;60.70;;;;;;;-2.10;87.16;99746.30;106478;1276;22675;-58
2023/01/20 01:03:02;;;;;;;131.20;57.20;;;;;;;-2.14;86.89;99748.77;106485;1276;22653;-59
2023/01/20 01:05:33;;;;;;;140.10;58.10;;;;;;;-2.20;86.84;99751.95;106498;1270;25540;-59
2023/01/20 01:08:05;;;;;;;136.30;58.40;;;;;;;-2.22;87.26;99754.78;106452;1272;25583;-59
2023/01/20 01:10:36;;;;;;;129.30;56.00;;;;;;;-2.22;87.22;99762.42;106483;1262;24621;-58
2023/01/20 01:13:07;;;;;;;137.70;59.30;;;;;;;-2.23;87.27;99764.78;106446;1275;24263;-60
2023/01/20 01:15:38;;;;;;;137.50;59.70;;;;;;;-2.25;87.22;99762.22;106540;1276;22565;-60
2023/01/20 01:18:09;;;;;;;126.30;57.60;;;;;;;-2.28;86.83;99762.95;106481;1274;23413;-59
2023/01/20 01:20:43;;;;;;;139.00;59.90;;;;;;;-2.34;86.48;99758.31;106420;1256;24218;-60
2023/01/20 01:23:14;;;;;;;133.80;53.60;;;;;;;-2.38;86.99;99760.31;106427;1277;22917;-60
2023/01/20 01:25:45;;;;;;;133.60;57.90;;;;;;;-2.40;87.06;99759.45;106595;1275;24482;-59
2023/01/20 01:28:16;;;;;;;121.40;55.50;;;;;;;-2.40;87.04;99756.34;106488;1270;22554;-59
2023/01/20 01:30:47;;;;;;;134.10;58.10;;;;;;;-2.40;87.29;99754.55;106526;1276;22563;-59
2023/01/20 01:33:18;;;;;;;125.10;58.90;;;;;;;-2.41;87.25;99755.02;106491;1277;22544;-59
2023/01/20 01:35:57;;;;;;;123.60;58.60;;;;;;;-2.44;87.19;99753.71;106665;1274;22534;-58
2023/01/20 01:38:29;;;;;;;134.80;58.60;;;;;;;-2.48;87.11;99752.81;106410;1277;24485;-59
2023/01/20 01:40:59;;;;;;;128.80;55.20;;;;;;;-2.49;87.44;99753.77;106487;1271;22593;-59
2023/01/20 01:43:32;;;;;;;136.80;58.80;;;;;;;-2.48;87.53;99754.14;106502;1259;25622;-60
2023/01/20 01:46:04;;;;;;;135.10;60.30;;;;;;;-2.48;87.45;99751.48;106570;1263;22797;-57
2023/01/20 01:48:38;;;;;;;153.10;62.70;;;;;;;-2.49;87.01;99757.03;106448;1277;24385;-57
2023/01/20 01:51:15;;;;;;;157.80;64.30;;;;;;;-2.54;86.78;99757.16;106480;1277;22676;-59
2023/01/20 01:53:53;;;;;;;166.30;64.40;;;;;;;-2.62;86.58;99755.80;106460;1277;22633;-59
2023/01/20 01:56:25;;;;;;;162.50;65.60;;;;;;;-2.65;86.81;99760.61;106461;1275;22589;-59
2023/01/20 01:59:00;;;;;;;145.90;57.70;;;;;;;-2.66;87.18;99769.27;106323;1262;25569;-59
2023/01/20 02:01:32;;;;;;;163.30;60.80;;;;;;;-2.66;87.42;99773.34;106484;1276;26870;-59
2023/01/20 02:04:09;;;;;;;158.50;65.50;;;;;;;-2.67;87.40;99773.09;106479;1255;25522;-59
2023/01/20 02:06:43;;;;;;;144.00;62.50;;;;;;;-2.66;87.43;99769.89;106472;1277;22664;-60
2023/01/20 02:09:15;;;;;;;147.90;60.80;;;;;;;-2.67;87.39;99766.55;106514;1254;22965;-59
2023/01/20 02:11:49;;;;;;;134.80;57.70;;;;;;;-2.70;87.02;99768.84;106449;1270;24234;-59
2023/01/20 02:14:24;;;;;;;139.70;57.90;;;;;;;-2.75;86.90;99769.27;106508;1275;25514;-59
2023/01/20 02:17:05;;;;;;;137.40;57.60;;;;;;;-2.77;87.21;99769.02;106390;1277;25482;-59
2023/01/20 02:20:03;;;;;;;134.90;58.60;;;;;;;-2.78;87.28;99771.23;106496;1271;22543;-59
2023/01/20 02:22:43;;;;;;;153.10;61.00;;;;;;;-2.79;87.22;99775.05;105976;1280;24355;-59
2023/01/20 02:25:41;;;;;;;144.00;58.00;;;;;;;-2.81;87.05;99776.87;106030;1277;25530;-59
2023/01/20 02:28:37;;;;;;;136.40;54.50;;;;;;;-2.84;87.09;99779.39;105923;1276;27297;-59
2023/01/20 02:31:31;;;;;;;133.90;57.40;;;;;;;-2.85;87.50;99787.91;105947;1261;23233;-59
2023/01/20 02:34:06;;;;;;;139.30;54.90;;;;;;;-2.82;87.85;99791.77;106103;1282;24315;-58
2023/01/20 02:36:43;;;;;;;128.20;54.00;;;;;;;-2.82;87.53;99795.23;105967;1282;24225;-58
2023/01/20 02:39:19;;;;;;;128.60;54.20;;;;;;;-2.85;87.35;99798.60;105961;1281;24281;-58
2023/01/20 02:41:58;;;;;;;130.90;56.60;;;;;;;-2.85;87.76;99799.98;106006;1261;23041;-59
2023/01/20 02:44:35;;;;;;;130.00;56.60;;;;;;;-2.84;87.86;99801.17;105973;1268;22825;-59
2023/01/20 02:47:14;;;;;;;131.10;52.70;;;;;;;-2.84;87.76;99801.01;106027;1277;24289;-59
2023/01/20 02:49:53;;;;;;;130.60;55.20;;;;;;;-2.85;87.67;99802.26;106067;1282;22819;-59
2023/01/20 02:52:27;;;;;;;122.40;53.10;;;;;;;-2.86;87.60;99800.95;106053;1279;22620;-59
2023/01/20 02:55:04;;;;;;;132.30;54.80;;;;;;;-2.86;87.70;99802.27;106019;1282;22708;-57
2023/01/20 02:57:42;;;;;;;118.90;52.70;;;;;;;-2.87;87.62;99801.25;106165;1282;25502;-59
2023/01/20 03:00:18;;;;;;;129.70;54.30;;;;;;;-2.87;87.72;99805.40;106156;1277;22682;-58
2023/01/20 03:02:51;;;;;;;122.90;54.10;;;;;;;-2.87;87.66;99803.20;106437;1272;22653;-59
2023/01/20 03:05:25;;;;;;;112.80;50.60;;;;;;;-2.87;87.90;99806.17;106506;1263;24020;-59
2023/01/20 03:07:58;;;;;;;121.40;56.10;;;;;;;-2.87;87.83;99811.63;106510;1276;22669;-59
2023/01/20 03:10:33;;;;;;;119.80;52.30;;;;;;;-2.87;87.94;99813.03;106287;1277;25544;-59
2023/01/20 03:13:11;;;;;;;120.30;53.30;;;;;;;-2.86;88.12;99815.06;106496;1277;22631;-58
2023/01/20 03:15:51;;;;;;;119.50;51.50;;;;;;;-2.86;88.01;99815.38;106397;1277;25573;-59
2023/01/20 03:18:23;;;;;;;120.60;53.70;;;;;;;-2.85;88.04;99817.25;106558;1276;22560;-58
2023/01/20 03:20:54;;;;;;;109.90;51.00;;;;;;;-2.85;87.93;99821.61;106521;1276;24281;-57
2023/01/20 03:23:25;;;;;;;121.80;54.20;;;;;;;-2.83;88.23;99823.71;106451;1264;23247;-58
2023/01/20 03:25:57;;;;;;;120.00;52.90;;;;;;;-2.85;87.95;99824.20;106575;1276;24327;-58
2023/01/20 03:28:28;;;;;;;121.20;54.00;;;;;;;-2.86;87.82;99828.73;106442;1270;24267;-58
2023/01/20 03:31:00;;;;;;;128.20;54.70;;;;;;;-2.90;87.84;99832.96;106446;1277;22564;-58
2023/01/20 03:33:31;;;;;;;123.50;53.10;;;;;;;-2.92;87.98;99838.83;106412;1277;22570;-59
2023/01/20 03:36:02;;;;;;;116.60;56.90;;;;;;;-2.92;87.93;99840.63;106451;1273;25748;-58
2023/01/20 03:38:33;;;;;;;121.30;56.30;;;;;;;-2.93;87.92;99842.35;106447;1270;23031;-58
2023/01/20 03:41:22;;;;;;;120.20;52.70;;;;;;;-2.93;88.05;99844.98;106549;1264;22762;-58
2023/01/20 03:44:03;;;;;;;123.90;53.40;;;;;;;-2.92;88.24;99849.75;106456;1271;22560;-59
2023/01/20 03:46:41;;;;;;;122.60;55.40;;;;;;;-2.94;87.93;99852.88;106356;1276;22583;-59
2023/01/20 03:49:18;;;;;;;117.70;50.00;;;;;;;-2.93;88.15;99857.80;106494;1270;25471;-59
2023/01/20 03:51:59;;;;;;;111.10;51.20;;;;;;;-2.90;88.49;99856.14;106476;1277;22777;-59
2023/01/20 03:54:37;;;;;;;126.00;53.50;;;;;;;-2.92;87.83;99856.62;106732;1272;22535;-59
2023/01/20 03:57:13;;;;;;;116.10;51.30;;;;;;;-2.95;87.71;99862.95;106562;1268;22615;-59
2023/01/20 03:59:48;;;;;;;119.30;53.80;;;;;;;-2.95;88.07;99863.10;106503;1264;22740;-59
2023/01/20 04:02:22;;;;;;;116.80;53.30;;;;;;;-2.96;88.00;99860.38;106548;1277;24224;-58
2023/01/20 04:04:55;;;;;;;116.30;51.40;;;;;;;-2.98;87.66;99864.21;106480;1277;22645;-59
2023/01/20 04:07:27;;;;;;;128.60;53.30;;;;;;;-3.00;87.74;99866.56;106485;1271;23264;-59
2023/01/20 04:10:05;;;;;;;117.80;51.90;;;;;;;-3.03;87.61;99871.18;106431;1277;23014;-59
2023/01/20 04:12:36;;;;;;;128.20;55.70;;;;;;;-3.08;87.97;99875.27;106411;1260;22889;-59
2023/01/20 04:15:10;;;;;;;122.60;54.20;;;;;;;-3.12;88.08;99873.87;106369;1277;22652;-58
2023/01/20 04:17:41;;;;;;;119.80;51.20;;;;;;;-3.16;87.71;99881.21;106630;1274;24270;-59
2023/01/20 04:20:15;;;;;;;124.30;55.10;;;;;;;-3.19;87.83;99885.83;106583;1273;25493;-59
2023/01/20 04:22:53;;;;;;;131.20;56.70;;;;;;;-3.22;87.57;99890.36;106448;1267;22597;-59
2023/01/20 04:25:28;;;;;;;118.20;52.10;;;;;;;-3.25;87.66;99890.69;106387;1254;28177;-58
2023/01/20 04:27:59;;;;;;;113.40;51.80;;;;;;;-3.26;87.89;99895.05;106557;1271;22598;-58
2023/01/20 04:30:30;;;;;;;127.70;54.20;;;;;;;-3.23;88.07;99897.46;106454;1270;22601;-58
2023/01/20 04:33:01;;;;;;;108.90;49.80;;;;;;;-3.24;87.56;99903.55;106438;1272;22592;-58
2023/01/20 04:35:32;;;;;;;125.10;54.60;;;;;;;-3.27;87.82;99902.70;106416;1276;22600;-59
2023/01/20 04:38:03;;;;;;;111.80;52.40;;;;;;;-3.25;87.98;99903.64;106438;1270;22574;-57
2023/01/20 04:40:34;;;;;;;119.00;51.50;;;;;;;-3.25;87.67;99908.79;106419;1264;24794;-59
2023/01/20 04:43:05;;;;;;;114.90;50.00;;;;;;;-3.27;87.30;99910.42;106485;1270;23212;-59
2023/01/20 04:45:36;;;;;;;122.80;54.90;;;;;;;-3.31;87.29;99916.44;106429;1276;22675;-58
2023/01/20 04:48:09;;;;;;;119.30;51.10;;;;;;;-3.35;87.18;99913.17;106468;1267;25562;-59
2023/01/20 04:50:41;;;;;;;118.60;51.80;;;;;;;-3.37;87.41;99910.59;106468;1276;22709;-58
2023/01/20 04:53:17;;;;;;;123.50;49.50;;;;;;;-3.34;87.70;99913.48;106604;1276;22591;-59
2023/01/20 04:55:48;;;;;;;113.40;48.80;;;;;;;-3.33;87.97;99914.79;106311;1264;22587;-59
2023/01/20 04:58:19;;;;;;;109.30;49.50;;;;;;;-3.33;87.92;99923.38;106318;1277;25739;-59
2023/01/20 05:00:50;;;;;;;121.80;52.00;;;;;;;-3.32;88.00;99931.56;106370;1271;22704;-58
2023/01/20 05:03:21;;;;;;;127.50;53.80;;;;;;;-3.33;87.68;99951.99;106323;1277;22582;-58
2023/01/20 05:05:55;;;;;;;120.60;52.80;;;;;;;-3.37;87.02;99956.84;106340;1276;25643;-57
2023/01/20 05:08:26;;;;;;;125.40;54.80;;;;;;;-3.44;86.82;99958.02;106471;1270;26821;-59
2023/01/20 05:10:57;;;;;;;131.00;54.10;;;;;;;-3.48;86.89;99956.61;106430;1273;25508;-59
2023/01/20 05:13:28;;;;;;;131.80;56.50;;;;;;;-3.53;87.01;99953.43;106447;1262;22570;-60
2023/01/20 05:15:59;;;;;;;129.90;56.40;;;;;;;-3.56;87.45;99957.41;106407;1277;23023;-58
2023/01/20 05:18:30;;;;;;;131.20;56.70;;;;;;;-3.57;87.59;99958.96;106416;1270;24362;-58
2023/01/20 05:21:01;;;;;;;129.00;57.70;;;;;;;-3.57;87.63;99962.93;106389;1274;22640;-58
2023/01/20 05:23:32;;;;;;;127.40;58.20;;;;;;;-3.57;87.70;99973.39;106421;1277;23183;-59
2023/01/20 05:26:03;;;;;;;126.60;56.60;;;;;;;-3.58;87.51;99979.55;106422;1270;28121;-58
2023/01/20 05:28:34;;;;;;;132.50;58.10;;;;;;;-3.59;87.48;99981.96;106421;1270;22645;-59
2023/01/20 05:31:05;;;;;;;130.10;56.80;;;;;;;-3.59;87.75;99986.73;106263;1270;25664;-57
2023/01/20 05:33:38;;;;;;;135.60;56.80;;;;;;;-3.57;87.92;99987.65;106277;1268;23015;-56
2023/01/20 05:36:11;;;;;;;145.00;62.60;;;;;;;-3.55;87.92;99986.80;106538;1263;22845;-56
2023/01/20 05:38:42;;;;;;;140.80;66.30;;;;;;;-3.54;88.06;99982.35;106568;1270;22550;-57
2023/01/20 05:41:13;;;;;;;161.10;70.90;;;;;;;-3.52;88.17;99982.59;106415;1276;22552;-58
2023/01/20 05:43:44;;;;;;;157.70;70.50;;;;;;;-3.52;88.08;99979.70;106382;1262;22641;-57
2023/01/20 05:46:15;;;;;;;156.40;67.70;;;;;;;-3.51;88.23;99980.78;106344;1276;22660;-58
2023/01/20 05:48:45;;;;;;;145.50;66.40;;;;;;;-3.50;88.52;99984.23;106371;1254;22878;-54
2023/01/20 05:51:16;;;;;;;141.30;63.40;;;;;;;-3.49;88.56;99985.77;106413;1271;22660;-56
2023/01/20 05:53:47;;;;;;;137.20;59.80;;;;;;;-3.50;88.67;99987.65;106551;1262;25487;-57
2023/01/20 05:56:18;;;;;;;122.90;54.00;;;;;;;-3.46;88.75;99988.98;106402;1276;24250;-58
2023/01/20 05:58:49;;;;;;;124.80;59.80;;;;;;;-3.46;88.79;99986.48;106211;1276;22577;-55
2023/01/20 06:01:20;;;;;;;136.40;59.40;;;;;;;-3.43;88.84;99987.48;106447;1270;24268;-56
2023/01/20 06:03:51;;;;;;;121.60;55.00;;;;;;;-3.43;88.74;99984.85;106399;1276;22770;-56
2023/01/20 06:06:22;;;;;;;122.20;59.40;;;;;;;-3.42;88.80;99979.14;106543;1276;22761;-57
2023/01/20 06:08:55;;;;;;;142.70;61.50;;;;;;;-3.41;88.70;99983.42;106353;1264;22591;-57
2023/01/20 06:11:25;;;;;;;123.90;58.50;;;;;;;-3.41;88.72;99973.30;106449;1274;22660;-57
2023/01/20 06:13:56;;;;;;;129.60;61.30;;;;;;;-3.42;88.29;99974.77;106362;1270;22727;-55
2023/01/20 06:16:28;;;;;;;151.50;64.50;;;;;;;-3.46;88.16;99965.59;106453;1263;22651;-54
2023/01/20 06:18:59;;;;;;;132.40;55.80;;;;;;;-3.46;88.44;99961.30;106457;1277;25641;-57
2023/01/20 06:21:30;;;;;;;124.70;54.20;;;;;;;-3.47;89.00;99957.86;106864;1269;25464;-58
2023/01/20 06:24:01;;;;;;;120.10;51.80;;;;;;;-3.52;89.22;99956.31;106381;1276;22736;-58
2023/01/20 06:26:32;;;;;;;112.40;49.10;;;;;;;-3.57;89.27;99953.59;106414;1264;25619;-58
2023/01/20 06:29:03;;;;;;;110.80;50.70;;;;;;;-3.59;89.28;99956.80;106482;1254;24235;-60
2023/01/20 06:31:34;;;;;;;112.70;48.30;;;;;;;-3.61;89.09;99956.23;106415;1263;22580;-59
2023/01/20 06:34:05;;;;;;;115.70;49.40;;;;;;;-3.62;89.24;99959.67;106415;1276;22681;-62
2023/01/20 06:36:36;;;;;;;104.90;45.50;;;;;;;-3.63;88.89;99964.27;106513;1254;23003;-59
2023/01/20 06:39:07;;;;;;;113.00;50.90;;;;;;;-3.62;88.94;99969.11;106346;1273;24877;-59
2023/01/20 06:41:38;;;;;;;106.40;47.70;;;;;;;-3.63;88.58;99970.98;106415;1276;22771;-58
2023/01/20 06:44:09;;;;;;;105.70;49.90;;;;;;;-3.64;88.49;99973.32;106296;1277;26201;-59
2023/01/20 06:46:40;;;;;;;104.70;50.00;;;;;;;-3.67;88.37;99977.53;106421;1271;22585;-59
2023/01/20 06:49:10;;;;;;;106.80;46.20;;;;;;;-3.67;88.17;99980.80;106454;1262;28253;-59
2023/01/20 06:51:41;;;;;;;104.80;46.20;;;;;;;-3.70;87.95;99986.87;106522;1276;24362;-59
2023/01/20 06:54:12;;;;;;;108.90;46.00;;;;;;;-3.72;87.98;99988.90;106456;1256;24388;-59
2023/01/20 06:56:44;;;;;;;115.20;48.70;;;;;;;-3.72;88.24;99998.48;106376;1275;25966;-59
2023/01/20 06:59:15;;;;;;;105.80;50.10;;;;;;;-3.71;88.32;100001.37;106470;1276;23994;-59
2023/01/20 07:01:46;;;;;;;103.20;49.40;;;;;;;-3.71;88.25;100011.81;106403;1262;22559;-58
2023/01/20 07:04:17;;;;;;;102.80;48.90;;;;;;;-3.71;88.35;100015.31;106420;1276;24268;-59
2023/01/20 07:06:48;;;;;;;111.00;46.80;;;;;;;-3.70;88.29;100016.64;106412;1276;22625;-58
2023/01/20 07:09:18;;;;;;;112.40;49.80;;;;;;;-3.71;88.26;100019.67;106441;1270;23276;-59
2023/01/20 07:11:49;;;;;;;108.80;50.50;;;;;;;-3.71;88.19;100024.42;106412;1277;24519;-59
2023/01/20 07:14:21;;;;;;;99.00;46.30;;;;;;;-3.72;88.10;100025.53;106541;1254;24455;-57
2023/01/20 07:16:52;;;;;;;122.60;51.40;;;;;;;-3.72;88.11;100029.73;106471;1271;24268;-57
2023/01/20 07:19:23;;;;;;;117.60;52.30;;;;;;;-3.70;88.24;100042.67;106504;1270;22939;-58
2023/01/20 07:21:54;;;;;;;121.10;52.60;;;;;;;-3.69;88.39;100054.84;106468;1271;23348;-59
2023/01/20 07:24:24;;;;;;;121.00;55.90;;;;;;;-3.68;88.18;100061.61;106492;1262;25648;-58
2023/01/20 07:26:55;;;;;;;116.00;52.10;;;;;;;-3.70;88.09;100066.45;106479;1273;22760;-58
2023/01/20 07:29:28;;;;;;;117.30;52.00;;;;;;;-3.73;87.80;100061.39;106478;1264;24582;-58
2023/01/20 07:31:58;;;;;;;120.60;52.20;;;;;;;-3.77;87.88;100063.63;106499;1273;22639;-58
2023/01/20 07:34:29;;;;;;;109.40;52.10;;;;;;;-3.77;88.05;100074.38;106454;1276;26557;-59
2023/01/20 07:37:01;;;;;;;120.50;56.10;;;;;;;-3.77;88.34;100084.91;106485;1277;26131;-59
2023/01/20 07:39:32;;;;;;;116.60;54.30;;;;;;;-3.76;88.44;100093.16;106569;1276;23157;-59
2023/01/20 07:42:03;;;;;;;118.30;52.10;;;;;;;-3.73;88.64;100095.97;106547;1276;24383;-59
2023/01/20 07:44:35;;;;;;;116.00;53.90;;;;;;;-3.69;88.84;100107.05;106420;1276;22743;-61
2023/01/20 07:47:06;;;;;;;114.70;53.80;;;;;;;-3.66;88.91;100114.94;106473;1254;25516;-60
2023/01/20 07:49:36;;;;;;;124.70;53.20;;;;;;;-3.63;89.11;100118.77;106557;1270;22582;-60
2023/01/20 07:52:07;;;;;;;110.00;51.10;;;;;;;-3.63;89.14;100116.19;106530;1270;22643;-59
2023/01/20 07:54:39;;;;;;;120.50;54.70;;;;;;;-3.59;89.34;100116.20;106524;1276;23027;-60
2023/01/20 07:57:09;;;;;;;108.20;52.80;;;;;;;-3.55;89.57;100117.30;106539;1276;22636;-59
2023/01/20 07:59:40;;;;;;;119.50;56.70;;;;;;;-3.52;89.60;100112.86;106434;1262;22644;-58
2023/01/20 08:02:11;;;;;;;120.60;56.30;;;;;;;-3.49;89.88;100107.10;106412;1276;22815;-59
2023/01/20 08:04:43;;;;;;;121.90;54.10;;;;;;;-3.45;90.13;100106.86;106520;1254;22955;-58
2023/01/20 08:07:14;;;;;;;121.90;50.80;;;;;;;-3.42;90.26;100102.04;106511;1260;22581;-60
2023/01/20 08:09:47;;;;;;;116.70;52.80;;;;;;;-3.38;90.36;100101.96;106553;1276;22590;-60
2023/01/20 08:12:18;;;;;;;125.50;52.10;;;;;;;-3.35;90.40;100101.66;106540;1270;25587;-59
2023/01/20 08:14:49;;;;;;;120.70;51.50;;;;;;;-3.31;90.38;100105.80;106418;1276;22573;-59
2023/01/20 08:17:20;;;;;;;132.40;54.40;;;;;;;-3.27;90.42;100106.50;106533;1276;22646;-59
2023/01/20 08:19:51;;;;;;;118.10;53.60;;;;;;;-3.23;90.64;100107.91;106426;1277;22795;-59
2023/01/20 08:22:24;;;;;;;118.50;50.10;;;;;;;-3.21;90.80;100113.13;106450;1270;22630;-58
2023/01/20 08:24:55;;;;;;;126.60;55.20;;;;;;;-3.17;90.89;100117.10;106481;1270;24388;-59
2023/01/20 08:27:26;;;;;;;116.50;54.50;;;;;;;-3.13;90.94;100124.20;106413;1276;22550;-60
2023/01/20 08:29:57;;;;;;;118.20;55.10;;;;;;;-3.11;90.87;100129.83;106544;1276;24401;-59
2023/01/20 08:32:28;;;;;;;124.30;57.00;;;;;;;-3.09;90.87;100131.08;106572;1263;25503;-61
2023/01/20 08:34:59;;;;;;;127.90;60.70;;;;;;;-3.05;90.93;100143.41;106442;1255;22924;-59
2023/01/20 08:37:29;;;;;;;135.50;63.90;;;;;;;-3.02;91.04;100149.65;106444;1270;25449;-58
2023/01/20 08:40:00;;;;;;;136.40;66.10;;;;;;;-2.98;91.07;100155.98;106497;1277;25556;-59
2023/01/20 08:42:31;;;;;;;136.80;65.50;;;;;;;-2.95;91.13;100156.52;106485;1262;22722;-59
2023/01/20 08:45:03;;;;;;;125.50;59.30;;;;;;;-2.91;91.40;100158.70;106487;1274;22732;-59
2023/01/20 08:47:37;;;;;;;127.70;62.20;;;;;;;-2.86;91.46;100163.46;106539;1277;22597;-60
2023/01/20 08:50:10;;;;;;;135.30;62.20;;;;;;;-2.83;91.55;100164.47;106725;1261;22620;-60
2023/01/20 08:52:42;;;;;;;132.50;59.00;;;;;;;-2.81;91.41;100159.79;106668;1277;25589;-60
2023/01/20 08:55:13;;;;;;;126.30;59.90;;;;;;;-2.78;91.42;100163.45;106522;1270;22680;-61
2023/01/20 08:57:44;;;;;;;138.40;65.30;;;;;;;-2.76;91.56;100166.65;106494;1256;22931;-59
2023/01/20 09:00:18;;;;;;;126.50;61.60;;;;;;;-2.72;91.70;100165.64;106438;1262;24267;-60
2023/01/20 09:02:49;;;;;;;133.80;62.90;;;;;;;-2.68;91.70;100166.11;106684;1267;22717;-59
2023/01/20 09:05:21;;;;;;;134.10;60.60;;;;;;;-2.65;91.73;100170.71;106414;1265;25629;-61
2023/01/20 09:07:52;;;;;;;127.20;57.90;;;;;;;-2.62;91.57;100177.89;106423;1270;24215;-59
2023/01/20 09:10:22;;;;;;;128.10;62.20;;;;;;;-2.59;91.48;100182.73;106381;1277;25086;-60
2023/01/20 09:12:53;;;;;;;127.60;62.30;;;;;;;-2.57;91.52;100180.77;106583;1254;22605;-58
2023/01/20 09:15:24;;;;;;;132.80;63.70;;;;;;;-2.54;91.54;100184.37;106532;1266;24305;-59
2023/01/20 09:17:55;;;;;;;143.80;63.90;;;;;;;-2.51;91.63;100185.29;106526;1267;24359;-59
2023/01/20 09:20:27;;;;;;;144.80;71.90;;;;;;;-2.48;91.62;100190.45;106537;1271;25592;-59
2023/01/20 09:23:02;;;;;;;149.60;70.40;;;;;;;-2.44;92.05;100186.23;106453;1262;22667;-59
2023/01/20 09:25:33;;;;;;;157.40;74.20;;;;;;;-2.37;92.28;100190.29;106456;1267;23102;-59
2023/01/20 09:28:05;;;;;;;145.50;68.00;;;;;;;-2.32;92.19;100188.87;106593;1276;24006;-59
2023/01/20 09:30:35;;;;;;;139.00;67.90;;;;;;;-2.28;92.34;100189.33;106476;1270;22770;-59
2023/01/20 09:33:06;;;;;;;141.30;68.70;;;;;;;-2.23;92.39;100190.31;106443;1273;26274;-58
2023/01/20 09:35:37;;;;;;;147.10;70.20;;;;;;;-2.17;92.58;100195.40;106448;1274;22629;-59
2023/01/20 09:44:02;;;;;;;;;;;;;;;-2.01;92.49;100190.66;106414;1262;24191;-58
2023/01/20 09:47:18;;;;;;;115.80;53.80;;;;;;;-1.96;92.53;100188.21;106544;1276;24268;-57
2023/01/20 09:53:01;;;;;;;135.90;62.20;;;;;;;-1.85;92.47;100189.83;106447;1274;23031;-57
2023/01/20 09:55:41;;;;;;;158.90;72.30;;;;;;;-1.80;92.66;100191.36;106635;1274;24342;-60
2023/01/20 09:58:25;;;;;;;155.90;77.90;;;;;;;-1.75;92.60;100191.83;106493;1261;24215;-59
2023/01/20 10:01:04;;;;;;;159.80;74.70;;;;;;;-1.70;92.57;100190.79;106417;1277;22723;-59
2023/01/20 10:03:40;;;;;;;165.30;76.80;;;;;;;-1.64;92.70;100186.05;106599;1277;22599;-62
2023/01/20 10:06:17;;;;;;;183.70;81.80;;;;;;;-1.59;92.82;100184.15;106501;1273;22670;-59
2023/01/20 10:08:53;;;;;;;157.30;72.40;;;;;;;-1.54;92.79;100180.30;106550;1276;26586;-60
2023/01/20 10:11:27;;;;;;;150.20;69.70;;;;;;;-1.49;92.84;100174.48;106448;1276;22536;-59
2023/01/20 10:14:05;;;;;;;148.90;70.60;;;;;;;-1.45;92.73;100167.73;106504;1271;23143;-56
2023/01/20 10:16:44;;;;;;;147.10;70.30;;;;;;;-1.41;92.78;100160.45;106568;1262;24678;-59
2023/01/20 10:19:26;;;;;;;149.30;71.80;;;;;;;-1.38;92.92;100160.19;106540;1263;24253;-58
2023/01/20 10:22:05;;;;;;;138.00;67.90;;;;;;;-1.34;93.15;100154.38;106417;1277;24279;-56
2023/01/20 10:24:41;;;;;;;143.10;71.20;;;;;;;-1.29;93.24;100159.11;106471;1276;22576;-59
2023/01/20 10:27:12;;;;;;;144.70;67.60;;;;;;;-1.24;93.18;100163.70;106500;1262;22618;-59
2023/01/20 10:29:47;;;;;;;136.10;65.40;;;;;;;-1.21;93.18;100161.17;106453;1276;24345;-59
2023/01/20 10:32:31;;;;;;;139.70;64.30;;;;;;;-1.18;93.10;100159.75;106426;1274;24275;-59
2023/01/20 10:35:09;;;;;;;130.50;64.40;;;;;;;-1.12;92.97;100165.11;106312;1271;24398;-59
2023/01/20 10:37:41;;;;;;;136.80;64.90;;;;;;;-1.10;92.98;100168.38;106489;1262;22580;-59
2023/01/20 10:40:25;;;;;;;121.40;59.70;;;;;;;-1.07;93.11;100173.14;106569;1276;22746;-59
2023/01/20 10:42:59;;;;;;;131.50;61.10;;;;;;;-1.04;93.13;100176.48;106466;1277;26234;-59
2023/01/20 10:45:39;;;;;;;112.20;57.20;;;;;;;-1.00;93.13;100180.83;106727;1262;23176;-60
2023/01/20 10:48:23;;;;;;;113.00;53.90;;;;;;;-0.96;93.26;100181.20;106554;1273;22544;-59
2023/01/20 10:51:00;;;;;;;119.00;59.10;;;;;;;-0.92;93.03;100185.48;106432;1264;22533;-57
2023/01/20 10:53:43;;;;;;;119.70;60.70;;;;;;;-0.89;93.08;100189.20;106556;1270;22586;-59
2023/01/20 10:56:41;;;;;;;121.00;60.40;;;;;;;-0.86;93.09;100189.89;106479;1273;24601;-59
2023/01/20 10:59:16;;;;;;;116.70;59.70;;;;;;;-0.80;93.17;100191.33;106575;1267;22527;-59
2023/01/20 11:01:52;;;;;;;129.90;62.60;;;;;;;-0.75;93.33;100192.77;106802;1270;22525;-59
2023/01/20 11:04:23;;;;;;;133.80;64.40;;;;;;;-0.71;93.52;100192.83;106436;1254;24427;-59
2023/01/20 11:06:57;;;;;;;132.60;65.20;;;;;;;-0.66;93.54;100195.77;106427;1259;23019;-58
2023/01/20 11:09:36;;;;;;;130.60;68.50;;;;;;;-0.62;93.74;100200.42;106681;1271;22545;-60
2023/01/20 11:12:13;;;;;;;125.60;63.80;;;;;;;-0.58;93.76;100202.20;106538;1276;22538;-59
2023/01/20 11:14:45;;;;;;;134.30;64.70;;;;;;;-0.53;93.79;100199.95;106462;1262;24410;-58
2023/01/20 11:17:19;;;;;;;130.40;63.40;;;;;;;-0.49;93.54;100199.84;106469;1262;23126;-59
2023/01/20 11:19:53;;;;;;;131.40;66.40;;;;;;;-0.43;93.57;100204.98;106431;1277;22532;-58
2023/01/20 11:22:30;;;;;;;129.40;64.10;;;;;;;-0.38;93.77;100200.98;106537;1270;22590;-59
2023/01/20 11:25:03;;;;;;;131.70;68.90;;;;;;;-0.33;93.56;100206.13;106676;1276;24261;-58
2023/01/20 11:27:40;;;;;;;138.40;66.90;;;;;;;-0.29;93.57;100207.57;106606;1276;24460;-59
2023/01/20 11:30:26;;;;;;;136.40;71.20;;;;;;;-0.23;93.67;100210.09;106501;1274;22538;-59
2023/01/20 11:33:20;;;;;;;147.40;71.90;;;;;;;-0.18;93.81;100212.23;106585;1270;25399;-59
2023/01/20 11:36:06;;;;;;;142.80;72.50;;;;;;;-0.12;93.70;100208.65;106417;1271;22590;-59
2023/01/20 11:38:45;;;;;;;138.70;71.30;;;;;;;-0.08;93.69;100212.05;106440;1277;24205;-59